sensor_id;sensor_type;location;lat;lon;timestamp;pressure;altitude;pressure_sealevel;temperature;humidity
47761;BME280;33524;55.434;38.520;2023-12-04T00:02:03;98986.44;;;-6.89;100.00
47761;BME280;33524;55.434;38.520;2023-12-04T00:04:32;98991.03;;;-7.02;100.00
47761;BME280;33524;55.434;38.520;2023-12-04T00:07:00;98990.25;;;-7.05;100.00
47761;BME280;33524;55.434;38.520;2023-12-04T00:09:28;98990.84;;;-6.94;100.00
47761;BME280;33524;55.434;38.520;2023-12-04T00:11:57;98995.16;;;-6.62;100.00
47761;BME280;33524;55.434;38.520;2023-12-04T00:14:25;98999.88;;;-6.81;100.00
47761;BME280;33524;55.434;38.520;2023-12-04T00:16:53;99010.56;;;-6.99;99.69
47761;BME280;33524;55.434;38.520;2023-12-04T00:19:22;98992.63;;;-6.98;100.00
47761;BME280;33524;55.434;38.520;2023-12-04T00:21:50;98995.09;;;-7.32;99.79
47761;BME280;33524;55.434;38.520;2023-12-04T00:24:18;98999.88;;;-6.79;100.00
47761;BME280;33524;55.434;38.520;2023-12-04T00:26:46;99018.81;;;-6.88;100.00
47761;BME280;33524;55.434;38.520;2023-12-04T00:29:14;99030.34;;;-6.37;100.00
47761;BME280;33524;55.434;38.520;2023-12-04T00:31:42;99018.63;;;-6.80;99.74
47761;BME280;33524;55.434;38.520;2023-12-04T00:34:10;99024.75;;;-6.86;99.84
47761;BME280;33524;55.434;38.520;2023-12-04T00:36:40;99024.72;;;-6.50;100.00
47761;BME280;33524;55.434;38.520;2023-12-04T00:39:08;99029.78;;;-6.84;99.81
47761;BME280;33524;55.434;38.520;2023-12-04T00:41:36;99031.25;;;-6.38;100.00
47761;BME280;33524;55.434;38.520;2023-12-04T00:44:06;99028.84;;;-6.44;100.00
47761;BME280;33524;55.434;38.520;2023-12-04T00:46:34;99042.28;;;-6.36;100.00
47761;BME280;33524;55.434;38.520;2023-12-04T00:49:05;99043.72;;;-6.60;99.42
47761;BME280;33524;55.434;38.520;2023-12-04T00:51:38;99046.88;;;-6.86;99.45
47761;BME280;33524;55.434;38.520;2023-12-04T00:54:07;99046.88;;;-6.86;99.53
47761;BME280;33524;55.434;38.520;2023-12-04T00:56:38;99053.56;;;-6.81;99.39
47761;BME280;33524;55.434;38.520;2023-12-04T00:59:10;99066.94;;;-6.34;100.00
47761;BME280;33524;55.434;38.520;2023-12-04T01:01:38;99052.91;;;-6.89;98.91
47761;BME280;33524;55.434;38.520;2023-12-04T01:04:06;99069.06;;;-6.87;99.34
47761;BME280;33524;55.434;38.520;2023-12-04T01:06:35;99077.16;;;-7.07;98.83
47761;BME280;33524;55.434;38.520;2023-12-04T01:09:03;99071.69;;;-6.90;99.95
47761;BME280;33524;55.434;38.520;2023-12-04T01:11:31;99072.66;;;-6.96;99.79
47761;BME280;33524;55.434;38.520;2023-12-04T01:13:59;99072.69;;;-7.36;98.84
47761;BME280;33524;55.434;38.520;2023-12-04T01:16:27;99084.69;;;-7.01;100.00
47761;BME280;33524;55.434;38.520;2023-12-04T01:18:56;99079.22;;;-7.23;99.51
47761;BME280;33524;55.434;38.520;2023-12-04T01:21:25;99075.06;;;-7.27;99.56
47761;BME280;33524;55.434;38.520;2023-12-04T01:23:53;99083.91;;;-7.43;99.00
47761;BME280;33524;55.434;38.520;2023-12-04T01:26:21;99087.37;;;-7.46;99.19
47761;BME280;33524;55.434;38.520;2023-12-04T01:28:49;99082.31;;;-7.49;98.63
47761;BME280;33524;55.434;38.520;2023-12-04T01:31:18;99090.34;;;-7.67;98.26
47761;BME280;33524;55.434;38.520;2023-12-04T01:33:48;99100.97;;;-7.45;99.78
47761;BME280;33524;55.434;38.520;2023-12-04T01:36:17;99102.41;;;-7.76;98.77
47761;BME280;33524;55.434;38.520;2023-12-04T01:38:46;99093.84;;;-7.73;99.35
47761;BME280;33524;55.434;38.520;2023-12-04T01:41:14;99098.19;;;-7.35;100.00
47761;BME280;33524;55.434;38.520;2023-12-04T01:43:42;99109.13;;;-7.28;100.00
47761;BME280;33524;55.434;38.520;2023-12-04T01:46:10;99109.56;;;-7.49;99.04
47761;BME280;33524;55.434;38.520;2023-12-04T01:48:38;99114.00;;;-7.17;99.85
47761;BME280;33524;55.434;38.520;2023-12-04T01:51:09;99115.81;;;-7.22;99.55
47761;BME280;33524;55.434;38.520;2023-12-04T01:53:39;99123.97;;;-7.05;100.00
47761;BME280;33524;55.434;38.520;2023-12-04T01:56:09;99124.13;;;-7.55;98.54
47761;BME280;33524;55.434;38.520;2023-12-04T01:58:37;99119.53;;;-7.37;99.27
47761;BME280;33524;55.434;38.520;2023-12-04T02:01:06;99118.06;;;-7.49;98.47
47761;BME280;33524;55.434;38.520;2023-12-04T02:03:35;99126.19;;;-7.30;99.00
47761;BME280;33524;55.434;38.520;2023-12-04T02:06:04;99128.47;;;-7.58;97.81
47761;BME280;33524;55.434;38.520;2023-12-04T02:08:33;99125.63;;;-7.44;98.57
47761;BME280;33524;55.434;38.520;2023-12-04T02:11:01;99132.66;;;-7.54;98.35
47761;BME280;33524;55.434;38.520;2023-12-04T02:13:29;99127.00;;;-6.86;100.00
47761;BME280;33524;55.434;38.520;2023-12-04T02:16:00;99131.31;;;-6.90;100.00
47761;BME280;33524;55.434;38.520;2023-12-04T02:18:34;99125.47;;;-7.37;98.43
47761;BME280;33524;55.434;38.520;2023-12-04T02:21:22;99127.03;;;-6.89;100.00
47761;BME280;33524;55.434;38.520;2023-12-04T02:23:52;99129.53;;;-6.86;100.00
47761;BME280;33524;55.434;38.520;2023-12-04T02:26:26;99128.25;;;-7.05;99.35
47761;BME280;33524;55.434;38.520;2023-12-04T02:28:59;99147.44;;;-7.28;98.31
47761;BME280;33524;55.434;38.520;2023-12-04T02:31:31;99150.62;;;-6.76;99.81
47761;BME280;33524;55.434;38.520;2023-12-04T02:34:02;99151.44;;;-7.15;98.65
47761;BME280;33524;55.434;38.520;2023-12-04T02:36:35;99153.03;;;-6.70;100.00
47761;BME280;33524;55.434;38.520;2023-12-04T02:39:04;99164.47;;;-6.86;99.40
47761;BME280;33524;55.434;38.520;2023-12-04T02:41:32;99168.84;;;-6.90;98.57
47761;BME280;33524;55.434;38.520;2023-12-04T02:44:00;99179.88;;;-6.88;98.81
47761;BME280;33524;55.434;38.520;2023-12-04T02:46:28;99176.97;;;-6.35;100.00
47761;BME280;33524;55.434;38.520;2023-12-04T02:48:56;99180.53;;;-6.80;96.99
47761;BME280;33524;55.434;38.520;2023-12-04T02:51:24;99177.87;;;-7.17;96.54
47761;BME280;33524;55.434;38.520;2023-12-04T02:53:54;99183.75;;;-7.56;96.51
47761;BME280;33524;55.434;38.520;2023-12-04T02:56:25;99188.72;;;-7.49;97.40
47761;BME280;33524;55.434;38.520;2023-12-04T02:58:53;99189.69;;;-7.55;97.72
47761;BME280;33524;55.434;38.520;2023-12-04T03:01:21;99197.25;;;-7.51;97.41
47761;BME280;33524;55.434;38.520;2023-12-04T03:03:49;99195.22;;;-7.81;97.01
47761;BME280;33524;55.434;38.520;2023-12-04T03:06:18;99207.84;;;-7.72;98.24
47761;BME280;33524;55.434;38.520;2023-12-04T03:08:46;99222.66;;;-7.93;97.47
47761;BME280;33524;55.434;38.520;2023-12-04T03:11:14;99223.09;;;-7.69;98.94
47761;BME280;33524;55.434;38.520;2023-12-04T03:13:42;99200.06;;;-8.16;97.38
47761;BME280;33524;55.434;38.520;2023-12-04T03:16:17;99216.72;;;-7.92;98.22
47761;BME280;33524;55.434;38.520;2023-12-04T03:18:46;99226.19;;;-8.00;97.82
47761;BME280;33524;55.434;38.520;2023-12-04T03:21:14;99239.69;;;-7.92;97.65
47761;BME280;33524;55.434;38.520;2023-12-04T03:23:42;99234.91;;;-7.62;98.91
47761;BME280;33524;55.434;38.520;2023-12-04T03:26:10;99244.91;;;-8.01;98.21
47761;BME280;33524;55.434;38.520;2023-12-04T03:28:39;99249.75;;;-7.84;98.60
47761;BME280;33524;55.434;38.520;2023-12-04T03:31:09;99255.13;;;-8.01;98.04
47761;BME280;33524;55.434;38.520;2023-12-04T03:33:37;99268.06;;;-8.13;98.09
47761;BME280;33524;55.434;38.520;2023-12-04T03:36:06;99268.75;;;-7.51;100.00
47761;BME280;33524;55.434;38.520;2023-12-04T03:38:34;99277.50;;;-8.20;97.37
47761;BME280;33524;55.434;38.520;2023-12-04T03:41:02;99277.97;;;-7.93;99.35
47761;BME280;33524;55.434;38.520;2023-12-04T03:43:31;99279.50;;;-8.40;97.60
47761;BME280;33524;55.434;38.520;2023-12-04T03:45:59;99290.03;;;-8.04;98.66
47761;BME280;33524;55.434;38.520;2023-12-04T03:48:27;99299.59;;;-8.19;98.21
47761;BME280;33524;55.434;38.520;2023-12-04T03:50:55;99301.84;;;-7.96;98.21
47761;BME280;33524;55.434;38.520;2023-12-04T03:53:23;99305.31;;;-8.03;97.77
47761;BME280;33524;55.434;38.520;2023-12-04T03:55:51;99311.31;;;-8.04;97.85
47761;BME280;33524;55.434;38.520;2023-12-04T03:58:20;99313.31;;;-8.27;97.37
47761;BME280;33524;55.434;38.520;2023-12-04T04:00:47;99300.37;;;-8.14;98.91
47761;BME280;33524;55.434;38.520;2023-12-04T04:03:16;99330.72;;;-7.94;98.18
47761;BME280;33524;55.434;38.520;2023-12-04T04:05:44;99325.97;;;-8.18;98.00
47761;BME280;33524;55.434;38.520;2023-12-04T04:08:12;99332.06;;;-8.28;97.86
47761;BME280;33524;55.434;38.520;2023-12-04T04:10:40;99344.75;;;-7.65;99.80
47761;BME280;33524;55.434;38.520;2023-12-04T04:13:08;99341.19;;;-8.12;97.25
47761;BME280;33524;55.434;38.520;2023-12-04T04:15:36;99347.78;;;-7.96;97.63
47761;BME280;33524;55.434;38.520;2023-12-04T04:18:05;99339.09;;;-7.85;98.02
47761;BME280;33524;55.434;38.520;2023-12-04T04:20:33;99356.09;;;-7.84;97.72
47761;BME280;33524;55.434;38.520;2023-12-04T04:23:01;99364.91;;;-8.07;97.18
47761;BME280;33524;55.434;38.520;2023-12-04T04:25:29;99362.28;;;-7.99;98.52
47761;BME280;33524;55.434;38.520;2023-12-04T04:27:57;99362.78;;;-7.77;98.78
47761;BME280;33524;55.434;38.520;2023-12-04T04:30:25;99353.47;;;-7.78;98.29
47761;BME280;33524;55.434;38.520;2023-12-04T04:32:54;99360.31;;;-7.80;98.05
47761;BME280;33524;55.434;38.520;2023-12-04T04:35:22;99378.47;;;-8.03;96.93
47761;BME280;33524;55.434;38.520;2023-12-04T04:37:50;99371.47;;;-7.87;97.85
47761;BME280;33524;55.434;38.520;2023-12-04T04:40:18;99372.78;;;-7.60;98.52
47761;BME280;33524;55.434;38.520;2023-12-04T04:42:48;99373.16;;;-7.88;98.00
47761;BME280;33524;55.434;38.520;2023-12-04T04:45:19;99382.03;;;-8.15;97.32
47761;BME280;33524;55.434;38.520;2023-12-04T04:47:47;99379.81;;;-7.76;98.19
47761;BME280;33524;55.434;38.520;2023-12-04T04:50:15;99379.38;;;-8.07;97.72
47761;BME280;33524;55.434;38.520;2023-12-04T04:52:43;99387.41;;;-7.72;98.39
47761;BME280;33524;55.434;38.520;2023-12-04T04:55:12;99390.03;;;-7.76;98.24
47761;BME280;33524;55.434;38.520;2023-12-04T04:58:02;99387.72;;;-7.96;97.71
47761;BME280;33524;55.434;38.520;2023-12-04T05:00:31;99397.84;;;-7.88;97.59
47761;BME280;33524;55.434;38.520;2023-12-04T05:02:59;99402.94;;;-7.87;98.22
47761;BME280;33524;55.434;38.520;2023-12-04T05:05:27;99400.78;;;-8.19;97.07
47761;BME280;33524;55.434;38.520;2023-12-04T05:07:56;99413.41;;;-8.07;98.31
47761;BME280;33524;55.434;38.520;2023-12-04T05:10:27;99412.84;;;-8.30;97.01
47761;BME280;33524;55.434;38.520;2023-12-04T05:12:55;99421.19;;;-8.19;97.17
47761;BME280;33524;55.434;38.520;2023-12-04T05:15:23;99423.72;;;-7.53;99.44
47761;BME280;33524;55.434;38.520;2023-12-04T05:17:52;99417.59;;;-8.03;97.40
47761;BME280;33524;55.434;38.520;2023-12-04T05:20:23;99421.94;;;-8.11;96.65
47761;BME280;33524;55.434;38.520;2023-12-04T05:22:51;99426.81;;;-7.91;96.97
47761;BME280;33524;55.434;38.520;2023-12-04T05:25:20;99427.97;;;-8.17;96.30
47761;BME280;33524;55.434;38.520;2023-12-04T05:27:49;99442.44;;;-8.19;96.87
47761;BME280;33524;55.434;38.520;2023-12-04T05:30:17;99441.66;;;-8.22;96.68
47761;BME280;33524;55.434;38.520;2023-12-04T05:32:45;99441.47;;;-8.07;97.90
47761;BME280;33524;55.434;38.520;2023-12-04T05:35:15;99454.81;;;-7.85;98.12
47761;BME280;33524;55.434;38.520;2023-12-04T05:37:44;99445.81;;;-8.14;97.11
47761;BME280;33524;55.434;38.520;2023-12-04T05:40:13;99460.16;;;-8.05;96.71
47761;BME280;33524;55.434;38.520;2023-12-04T05:42:41;99469.72;;;-8.22;96.93
47761;BME280;33524;55.434;38.520;2023-12-04T05:45:10;99468.91;;;-8.26;97.26
47761;BME280;33524;55.434;38.520;2023-12-04T05:47:38;99474.00;;;-8.29;96.70
47761;BME280;33524;55.434;38.520;2023-12-04T05:50:07;99476.56;;;-8.29;96.69
47761;BME280;33524;55.434;38.520;2023-12-04T05:52:35;99477.66;;;-8.47;96.30
47761;BME280;33524;55.434;38.520;2023-12-04T05:55:04;99496.84;;;-8.15;97.70
47761;BME280;33524;55.434;38.520;2023-12-04T05:57:32;99502.84;;;-8.19;96.69
47761;BME280;33524;55.434;38.520;2023-12-04T06:00:00;99506.91;;;-8.04;96.54
47761;BME280;33524;55.434;38.520;2023-12-04T06:02:31;99510.81;;;-7.73;97.22
47761;BME280;33524;55.434;38.520;2023-12-04T06:05:00;99502.44;;;-7.85;97.15
47761;BME280;33524;55.434;38.520;2023-12-04T06:07:29;99515.03;;;-7.70;96.95
47761;BME280;33524;55.434;38.520;2023-12-04T06:09:57;99525.31;;;-7.78;96.79
47761;BME280;33524;55.434;38.520;2023-12-04T06:12:26;99529.31;;;-7.57;97.35
47761;BME280;33524;55.434;38.520;2023-12-04T06:14:53;99533.53;;;-7.53;96.82
47761;BME280;33524;55.434;38.520;2023-12-04T06:17:24;99548.59;;;-7.31;97.26
47761;BME280;33524;55.434;38.520;2023-12-04T06:19:53;99538.84;;;-7.69;96.09
47761;BME280;33524;55.434;38.520;2023-12-04T06:22:21;99538.84;;;-7.68;96.39
47761;BME280;33524;55.434;38.520;2023-12-04T06:24:50;99548.59;;;-7.31;97.29
47761;BME280;33524;55.434;38.520;2023-12-04T06:27:19;99547.94;;;-7.48;96.27
47761;BME280;33524;55.434;38.520;2023-12-04T06:29:48;99549.00;;;-7.65;96.23
47761;BME280;33524;55.434;38.520;2023-12-04T06:32:20;99548.09;;;-7.59;96.74
47761;BME280;33524;55.434;38.520;2023-12-04T06:34:48;99548.81;;;-7.49;96.64
47761;BME280;33524;55.434;38.520;2023-12-04T06:37:16;99559.13;;;-7.56;96.15
47761;BME280;33524;55.434;38.520;2023-12-04T06:39:45;99568.44;;;-7.55;96.29
47761;BME280;33524;55.434;38.520;2023-12-04T06:42:16;99564.81;;;-7.35;96.43
47761;BME280;33524;55.434;38.520;2023-12-04T06:44:44;99568.50;;;-7.56;96.11
47761;BME280;33524;55.434;38.520;2023-12-04T06:47:17;99576.03;;;-7.45;96.55
47761;BME280;33524;55.434;38.520;2023-12-04T06:49:46;99566.25;;;-7.16;97.09
47761;BME280;33524;55.434;38.520;2023-12-04T06:52:14;99564.34;;;-7.01;96.83
47761;BME280;33524;55.434;38.520;2023-12-04T06:54:42;99578.19;;;-7.15;96.01
47761;BME280;33524;55.434;38.520;2023-12-04T06:57:11;99578.22;;;-7.18;96.13
47761;BME280;33524;55.434;38.520;2023-12-04T06:59:39;99582.25;;;-7.03;96.58
47761;BME280;33524;55.434;38.520;2023-12-04T07:02:06;99573.00;;;-7.12;95.49
47761;BME280;33524;55.434;38.520;2023-12-04T07:04:35;99582.16;;;-6.94;96.87
47761;BME280;33524;55.434;38.520;2023-12-04T07:07:04;99575.63;;;-7.16;94.98
47761;BME280;33524;55.434;38.520;2023-12-04T07:09:33;99582.03;;;-6.86;96.32
47761;BME280;33524;55.434;38.520;2023-12-04T07:12:02;99576.84;;;-6.81;95.66
47761;BME280;33524;55.434;38.520;2023-12-04T07:14:30;99583.91;;;-6.97;94.82
47761;BME280;33524;55.434;38.520;2023-12-04T07:16:58;99589.63;;;-6.81;95.21
47761;BME280;33524;55.434;38.520;2023-12-04T07:19:28;99591.09;;;-6.63;95.38
47761;BME280;33524;55.434;38.520;2023-12-04T07:21:56;99587.63;;;-6.59;95.68
47761;BME280;33524;55.434;38.520;2023-12-04T07:24:24;99600.41;;;-6.59;95.19
47761;BME280;33524;55.434;38.520;2023-12-04T07:26:54;99604.19;;;-6.31;95.72
47761;BME280;33524;55.434;38.520;2023-12-04T07:29:22;99600.59;;;-6.72;94.30
47761;BME280;33524;55.434;38.520;2023-12-04T07:31:50;99609.12;;;-6.74;94.46
47761;BME280;33524;55.434;38.520;2023-12-04T07:34:19;99609.38;;;-6.34;95.62
47761;BME280;33524;55.434;38.520;2023-12-04T07:37:04;99619.91;;;-6.55;94.16
47761;BME280;33524;55.434;38.520;2023-12-04T07:39:49;99630.84;;;-6.42;95.20
47761;BME280;33524;55.434;38.520;2023-12-04T07:42:17;99632.75;;;-6.57;94.42
47761;BME280;33524;55.434;38.520;2023-12-04T07:44:45;99630.41;;;-6.72;93.81
47761;BME280;33524;55.434;38.520;2023-12-04T07:47:13;99633.03;;;-6.77;94.27
47761;BME280;33524;55.434;38.520;2023-12-04T07:49:44;99639.06;;;-6.81;93.94
47761;BME280;33524;55.434;38.520;2023-12-04T07:52:13;99639.69;;;-6.65;94.50
47761;BME280;33524;55.434;38.520;2023-12-04T07:54:41;99650.50;;;-6.46;94.52
47761;BME280;33524;55.434;38.520;2023-12-04T07:57:09;99654.06;;;-6.58;94.37
47761;BME280;33524;55.434;38.520;2023-12-04T07:59:40;99659.91;;;-6.50;94.02
47761;BME280;33524;55.434;38.520;2023-12-04T08:02:08;99668.56;;;-6.57;92.68
47761;BME280;33524;55.434;38.520;2023-12-04T08:04:37;99665.19;;;-6.60;92.82
47761;BME280;33524;55.434;38.520;2023-12-04T08:07:05;99666.78;;;-6.53;92.82
47761;BME280;33524;55.434;38.520;2023-12-04T08:09:33;99669.91;;;-6.33;94.24
47761;BME280;33524;55.434;38.520;2023-12-04T08:12:01;99665.13;;;-6.54;93.39
47761;BME280;33524;55.434;38.520;2023-12-04T08:14:29;99674.38;;;-6.47;93.28
47761;BME280;33524;55.434;38.520;2023-12-04T08:16:57;99678.31;;;-6.24;93.59
47761;BME280;33524;55.434;38.520;2023-12-04T08:19:25;99685.59;;;-6.00;93.60
47761;BME280;33524;55.434;38.520;2023-12-04T08:21:53;99683.59;;;-5.82;93.18
47761;BME280;33524;55.434;38.520;2023-12-04T08:24:23;99690.59;;;-5.94;92.48
47761;BME280;33524;55.434;38.520;2023-12-04T08:26:52;99688.63;;;-5.79;92.35
47761;BME280;33524;55.434;38.520;2023-12-04T08:29:20;99692.81;;;-5.74;92.41
47761;BME280;33524;55.434;38.520;2023-12-04T08:31:48;99672.75;;;-5.95;92.47
47761;BME280;33524;55.434;38.520;2023-12-04T08:34:19;99692.81;;;-6.25;91.42
47761;BME280;33524;55.434;38.520;2023-12-04T08:36:47;99699.69;;;-6.27;92.46
47761;BME280;33524;55.434;38.520;2023-12-04T08:39:15;99682.25;;;-6.61;91.75
47761;BME280;33524;55.434;38.520;2023-12-04T08:41:49;99702.50;;;-6.47;92.33
47761;BME280;33524;55.434;38.520;2023-12-04T08:44:28;99706.28;;;-6.73;92.17
47761;BME280;33524;55.434;38.520;2023-12-04T08:46:56;99708.59;;;-6.54;93.28
47761;BME280;33524;55.434;38.520;2023-12-04T08:49:25;99710.47;;;-6.67;92.14
47761;BME280;33524;55.434;38.520;2023-12-04T08:52:07;99723.94;;;-6.54;92.54
47761;BME280;33524;55.434;38.520;2023-12-04T08:54:39;99724.00;;;-6.57;93.16
47761;BME280;33524;55.434;38.520;2023-12-04T08:57:09;99730.75;;;-6.53;92.92
47761;BME280;33524;55.434;38.520;2023-12-04T08:59:37;99732.53;;;-6.58;93.12
47761;BME280;33524;55.434;38.520;2023-12-04T09:02:05;99734.91;;;-6.44;92.87
47761;BME280;33524;55.434;38.520;2023-12-04T09:04:35;99732.59;;;-6.61;92.89
47761;BME280;33524;55.434;38.520;2023-12-04T09:07:03;99724.72;;;-6.49;92.79
47761;BME280;33524;55.434;38.520;2023-12-04T09:09:37;99745.00;;;-6.34;93.26
47761;BME280;33524;55.434;38.520;2023-12-04T09:12:06;99738.97;;;-6.30;93.17
47761;BME280;33524;55.434;38.520;2023-12-04T09:14:35;99747.47;;;-6.27;93.58
47761;BME280;33524;55.434;38.520;2023-12-04T09:17:03;99747.03;;;-5.98;94.09
47761;BME280;33524;55.434;38.520;2023-12-04T09:19:32;99748.47;;;-6.39;92.84
47761;BME280;33524;55.434;38.520;2023-12-04T09:22:00;99747.56;;;-6.37;92.78
47761;BME280;33524;55.434;38.520;2023-12-04T09:24:44;99749.56;;;-5.95;93.36
47761;BME280;33524;55.434;38.520;2023-12-04T09:27:12;99744.56;;;-6.06;93.04
47761;BME280;33524;55.434;38.520;2023-12-04T09:29:41;99754.12;;;-6.16;91.70
47761;BME280;33524;55.434;38.520;2023-12-04T09:32:10;99763.16;;;-5.93;93.68
47761;BME280;33524;55.434;38.520;2023-12-04T09:34:38;99760.47;;;-5.87;92.38
47761;BME280;33524;55.434;38.520;2023-12-04T09:37:06;99769.75;;;-6.36;92.20
47761;BME280;33524;55.434;38.520;2023-12-04T09:39:39;99775.03;;;-6.48;92.69
47761;BME280;33524;55.434;38.520;2023-12-04T09:42:08;99769.66;;;-6.30;93.48
47761;BME280;33524;55.434;38.520;2023-12-04T09:44:37;99789.22;;;-6.25;92.97
47761;BME280;33524;55.434;38.520;2023-12-04T09:47:06;99781.06;;;-5.93;93.47
47761;BME280;33524;55.434;38.520;2023-12-04T09:49:35;99779.91;;;-6.30;92.25
47761;BME280;33524;55.434;38.520;2023-12-04T09:52:07;99775.75;;;-6.38;91.81
47761;BME280;33524;55.434;38.520;2023-12-04T09:54:35;99790.03;;;-6.22;93.19
47761;BME280;33524;55.434;38.520;2023-12-04T09:57:08;99787.69;;;-6.39;93.33
47761;BME280;33524;55.434;38.520;2023-12-04T09:59:36;99804.78;;;-6.41;92.30
47761;BME280;33524;55.434;38.520;2023-12-04T10:02:05;99801.97;;;-6.22;92.89
47761;BME280;33524;55.434;38.520;2023-12-04T10:04:34;99807.16;;;-6.25;92.33
47761;BME280;33524;55.434;38.520;2023-12-04T10:07:06;99812.28;;;-6.29;91.88
47761;BME280;33524;55.434;38.520;2023-12-04T10:09:40;99818.59;;;-6.54;91.57
47761;BME280;33524;55.434;38.520;2023-12-04T10:12:09;99820.09;;;-6.36;92.27
47761;BME280;33524;55.434;38.520;2023-12-04T10:14:37;99823.91;;;-6.73;91.48
47761;BME280;33524;55.434;38.520;2023-12-04T10:17:14;99822.50;;;-6.25;92.87
47761;BME280;33524;55.434;38.520;2023-12-04T10:19:45;99823.44;;;-6.33;92.24
47761;BME280;33524;55.434;38.520;2023-12-04T10:22:14;99835.81;;;-6.67;91.72
47761;BME280;33524;55.434;38.520;2023-12-04T10:24:42;99843.91;;;-6.33;92.58
47761;BME280;33524;55.434;38.520;2023-12-04T10:27:10;99834.78;;;-6.52;92.21
47761;BME280;33524;55.434;38.520;2023-12-04T10:29:49;99855.13;;;-6.43;92.74
47761;BME280;33524;55.434;38.520;2023-12-04T10:32:23;99868.81;;;-6.47;92.56
47761;BME280;33524;55.434;38.520;2023-12-04T10:34:51;99866.00;;;-6.25;93.90
47761;BME280;33524;55.434;38.520;2023-12-04T10:37:19;99860.16;;;-6.37;93.35
47761;BME280;33524;55.434;38.520;2023-12-04T10:39:51;99866.38;;;-6.56;92.89
47761;BME280;33524;55.434;38.520;2023-12-04T10:42:27;99865.59;;;-6.64;92.68
47761;BME280;33524;55.434;38.520;2023-12-04T10:44:57;99871.47;;;-6.55;92.92
47761;BME280;33524;55.434;38.520;2023-12-04T10:47:33;99861.38;;;-6.67;92.29
47761;BME280;33524;55.434;38.520;2023-12-04T10:50:06;99874.72;;;-6.40;92.88
47761;BME280;33524;55.434;38.520;2023-12-04T10:52:37;99876.53;;;-6.48;92.31
47761;BME280;33524;55.434;38.520;2023-12-04T10:55:10;99877.63;;;-6.71;91.41
47761;BME280;33524;55.434;38.520;2023-12-04T10:57:44;99885.94;;;-6.55;92.82
47761;BME280;33524;55.434;38.520;2023-12-04T11:00:15;99891.81;;;-6.45;92.68
47761;BME280;33524;55.434;38.520;2023-12-04T11:02:46;99888.91;;;-6.16;93.41
47761;BME280;33524;55.434;38.520;2023-12-04T11:05:19;99889.91;;;-6.26;91.90
47761;BME280;33524;55.434;38.520;2023-12-04T11:08:01;99889.56;;;-6.72;91.48
47761;BME280;33524;55.434;38.520;2023-12-04T11:10:45;99889.22;;;-6.41;93.09
47761;BME280;33524;55.434;38.520;2023-12-04T11:13:27;99892.81;;;-6.57;92.13
47761;BME280;33524;55.434;38.520;2023-12-04T11:21:49;99909.22;;;-6.01;93.74
47761;BME280;33524;55.434;38.520;2023-12-04T11:24:18;99918.09;;;-6.31;91.88
47761;BME280;33524;55.434;38.520;2023-12-04T11:26:46;99926.03;;;-6.54;91.71
47761;BME280;33524;55.434;38.520;2023-12-04T11:29:16;99923.16;;;-6.23;92.58
47761;BME280;33524;55.434;38.520;2023-12-04T11:31:48;99920.81;;;-6.45;91.89
47761;BME280;33524;55.434;38.520;2023-12-04T11:34:25;99916.31;;;-6.24;92.32
47761;BME280;33524;55.434;38.520;2023-12-04T11:36:54;99918.72;;;-6.09;93.41
47761;BME280;33524;55.434;38.520;2023-12-04T11:39:25;99935.44;;;-6.58;89.90
47761;BME280;33524;55.434;38.520;2023-12-04T11:41:54;99930.38;;;-6.59;90.17
47761;BME280;33524;55.434;38.520;2023-12-04T11:44:23;99944.09;;;-6.70;90.37
47761;BME280;33524;55.434;38.520;2023-12-04T11:46:56;99939.00;;;-6.70;90.61
47761;BME280;33524;55.434;38.520;2023-12-04T11:51:54;99946.38;;;-6.45;90.76
47761;BME280;33524;55.434;38.520;2023-12-04T11:54:23;99953.28;;;-6.48;90.88
47761;BME280;33524;55.434;38.520;2023-12-04T11:59:37;99959.50;;;-6.79;91.32
47761;BME280;33524;55.434;38.520;2023-12-04T12:02:09;99964.78;;;-6.94;91.66
47761;BME280;33524;55.434;38.520;2023-12-04T12:04:38;99964.50;;;-6.63;92.23
47761;BME280;33524;55.434;38.520;2023-12-04T12:07:06;99966.19;;;-6.59;91.85
47761;BME280;33524;55.434;38.520;2023-12-04T12:09:35;99966.53;;;-7.02;90.65
47761;BME280;33524;55.434;38.520;2023-12-04T12:12:04;99971.50;;;-6.85;91.91
47761;BME280;33524;55.434;38.520;2023-12-04T12:14:32;99968.97;;;-6.02;94.10
47761;BME280;33524;55.434;38.520;2023-12-04T12:17:00;99982.03;;;-6.26;92.22
47761;BME280;33524;55.434;38.520;2023-12-04T12:19:29;99972.13;;;-6.57;91.67
47761;BME280;33524;55.434;38.520;2023-12-04T12:21:57;99984.97;;;-6.63;91.30
47761;BME280;33524;55.434;38.520;2023-12-04T12:24:25;99983.97;;;-6.50;91.55
47761;BME280;33524;55.434;38.520;2023-12-04T12:26:54;99976.47;;;-6.65;90.67
47761;BME280;33524;55.434;38.520;2023-12-04T12:29:24;99969.78;;;-6.85;90.79
47761;BME280;33524;55.434;38.520;2023-12-04T12:31:52;99979.88;;;-6.68;91.60
47761;BME280;33524;55.434;38.520;2023-12-04T12:34:21;99980.06;;;-6.88;91.19
47761;BME280;33524;55.434;38.520;2023-12-04T12:36:49;99988.44;;;-6.72;93.03
47761;BME280;33524;55.434;38.520;2023-12-04T12:39:17;99984.41;;;-6.99;90.97
47761;BME280;33524;55.434;38.520;2023-12-04T12:41:50;99991.88;;;-6.72;91.21
47761;BME280;33524;55.434;38.520;2023-12-04T12:44:18;99980.78;;;-6.74;92.92
47761;BME280;33524;55.434;38.520;2023-12-04T12:46:52;99982.62;;;-6.88;91.12
47761;BME280;33524;55.434;38.520;2023-12-04T12:49:20;99982.47;;;-6.73;92.21
47761;BME280;33524;55.434;38.520;2023-12-04T12:52:05;99990.97;;;-6.71;92.18
47761;BME280;33524;55.434;38.520;2023-12-04T12:54:37;99997.66;;;-6.56;92.88
47761;BME280;33524;55.434;38.520;2023-12-04T12:57:06;99999.72;;;-6.98;91.37
47761;BME280;33524;55.434;38.520;2023-12-04T12:59:35;100000.25;;;-6.57;94.24
47761;BME280;33524;55.434;38.520;2023-12-04T13:02:04;100004.81;;;-6.93;92.30
47761;BME280;33524;55.434;38.520;2023-12-04T13:04:34;100007.94;;;-6.59;92.78
47761;BME280;33524;55.434;38.520;2023-12-04T13:07:03;100011.44;;;-6.72;92.75
47761;BME280;33524;55.434;38.520;2023-12-04T13:09:34;100008.22;;;-6.96;92.41
47761;BME280;33524;55.434;38.520;2023-12-04T13:12:04;100021.03;;;-6.97;93.09